createdAt,value
2019-05-03T00:01:54.924Z,3.17
2019-05-03T00:04:25.470Z,4.33
2019-05-03T00:06:56.193Z,2.43
2019-05-03T00:09:26.608Z,3.63
2019-05-03T00:11:57.345Z,2.83
2019-05-03T00:14:28.026Z,2.07
2019-05-03T00:16:58.390Z,2.63
2019-05-03T00:19:29.165Z,3.07
2019-05-03T00:21:59.513Z,3.13
2019-05-03T00:24:31.929Z,4.33
2019-05-03T00:27:02.643Z,4.03
2019-05-03T00:29:34.090Z,3.17
2019-05-03T00:32:06.273Z,4.43
2019-05-03T00:34:41.862Z,2.53
2019-05-03T00:37:14.663Z,4.23
2019-05-03T00:39:59.400Z,3.03
2019-05-03T00:42:31.665Z,3.97
2019-05-03T00:45:02.377Z,4.07
2019-05-03T00:47:35.404Z,5.63
2019-05-03T00:50:07.897Z,3.90
2019-05-03T00:52:38.242Z,3.83
2019-05-03T00:55:16.091Z,5.03
2019-05-03T00:57:41.570Z,4.50
2019-05-03T01:00:12.462Z,5.47
2019-05-03T01:02:43.628Z,4.63
2019-05-03T01:05:13.963Z,6.43
2019-05-03T01:07:44.651Z,6.10
2019-05-03T01:10:15.594Z,4.57
2019-05-03T01:12:46.568Z,8.10
2019-05-03T01:15:24.550Z,7.93
2019-05-03T01:17:54.901Z,9.90
2019-05-03T01:20:27.441Z,5.07
2019-05-03T01:23:01.947Z,9.57
2019-05-03T01:25:35.067Z,9.53
2019-05-03T01:28:04.595Z,7.27
2019-05-03T01:30:35.072Z,6.30
2019-05-03T01:33:05.463Z,8.40
2019-05-03T01:35:36.847Z,8.20
2019-05-03T01:38:08.382Z,7.53
2019-05-03T01:40:41.793Z,7.73
2019-05-03T01:43:14.234Z,8.00
2019-05-03T01:45:45.783Z,7.67
2019-05-03T01:48:35.221Z,8.83
2019-05-03T01:51:25.352Z,8.03
2019-05-03T01:53:57.551Z,8.67
2019-05-03T01:56:28.315Z,12.43
2019-05-03T01:59:01.839Z,11.80
2019-05-03T02:01:51.900Z,10.80
2019-05-03T02:04:39.225Z,9.47
2019-05-03T02:07:11.811Z,8.53
2019-05-03T02:09:43.122Z,10.03
2019-05-03T02:12:13.521Z,11.03
2019-05-03T02:14:45.602Z,9.93
2019-05-03T02:17:18.224Z,10.00
2019-05-03T02:19:52.748Z,8.77
2019-05-03T02:22:23.583Z,10.17
2019-05-03T02:24:54.064Z,7.83
2019-05-03T02:27:24.478Z,11.50
2019-05-03T02:29:56.471Z,10.20
2019-05-03T02:32:29.590Z,11.77
2019-05-03T02:35:02.837Z,9.87
2019-05-03T02:37:33.393Z,8.57
2019-05-03T02:40:05.251Z,13.43
2019-05-03T02:42:38.196Z,9.63
2019-05-03T02:45:16.934Z,11.97
2019-05-03T02:48:06.159Z,10.50
2019-05-03T02:50:38.748Z,10.97
2019-05-03T02:53:11.959Z,11.00
2019-05-03T02:55:45.109Z,10.77
2019-05-03T02:58:15.937Z,10.03
2019-05-03T03:00:58.662Z,9.97
2019-05-03T03:03:32.855Z,11.70
2019-05-03T03:06:06.697Z,14.00
2019-05-03T03:08:39.444Z,16.13
2019-05-03T03:11:11.002Z,12.03
2019-05-03T03:13:41.425Z,10.80
2019-05-03T03:16:11.852Z,15.60
2019-05-03T03:18:45.644Z,14.03
2019-05-03T03:21:18.480Z,10.53
2019-05-03T03:24:09.925Z,13.03
2019-05-03T03:26:43.625Z,12.67
2019-05-03T03:29:16.388Z,11.17
2019-05-03T03:32:29.565Z,11.33
2019-05-03T03:35:11.626Z,14.00
2019-05-03T03:37:42.604Z,16.10
2019-05-03T03:40:16.090Z,13.77
2019-05-03T03:42:48.502Z,19.70
2019-05-03T03:45:19.377Z,14.93
2019-05-03T03:47:56.442Z,16.03
2019-05-03T03:50:28.842Z,19.20
2019-05-03T03:53:01.122Z,13.83
2019-05-03T03:55:35.422Z,13.10
2019-05-03T03:58:06.436Z,13.07
2019-05-03T04:00:40.919Z,19.03
2019-05-03T04:03:11.478Z,20.37
2019-05-03T04:05:43.083Z,15.23
2019-05-03T04:08:16.118Z,20.37
2019-05-03T04:10:46.485Z,17.90
2019-05-03T04:13:20.805Z,17.70
2019-05-03T04:15:58.586Z,15.70
2019-05-03T04:18:55.002Z,21.43
2019-05-03T04:21:25.496Z,21.93
2019-05-03T04:23:56.583Z,18.70
2019-05-03T04:26:29.926Z,21.43
2019-05-03T04:29:05.064Z,22.40
2019-05-03T04:31:36.927Z,24.07
2019-05-03T04:34:07.337Z,23.33
2019-05-03T04:36:39.245Z,22.90
2019-05-03T04:39:10.542Z,27.20
2019-05-03T04:41:45.205Z,22.57
2019-05-03T04:44:15.516Z,20.53
2019-05-03T04:46:47.494Z,16.83
2019-05-03T04:49:18.502Z,18.33
2019-05-03T04:51:49.457Z,23.03
2019-05-03T04:54:25.748Z,25.03
2019-05-03T04:56:56.435Z,24.13
2019-05-03T04:59:27.834Z,28.03
2019-05-03T05:01:58.530Z,26.33
2019-05-03T05:04:29.146Z,29.63
2019-05-03T05:07:01.152Z,26.77
2019-05-03T05:09:31.860Z,28.13
2019-05-03T05:12:02.440Z,25.80
2019-05-03T05:14:37.645Z,28.30
2019-05-03T05:17:09.206Z,27.47
2019-05-03T05:19:55.795Z,25.27
2019-05-03T05:22:30.523Z,30.23
2019-05-03T05:25:04.513Z,29.63
2019-05-03T05:27:51.106Z,29.03
2019-05-03T05:30:17.755Z,26.60
2019-05-03T05:32:48.264Z,27.37
2019-05-03T05:35:20.577Z,33.77
2019-05-03T05:37:51.462Z,28.03
2019-05-03T05:40:24.518Z,44.60
2019-05-03T05:42:56.472Z,30.30
2019-05-03T05:45:27.922Z,30.33
2019-05-03T05:48:05.169Z,27.77
2019-05-03T05:50:37.969Z,29.43
2019-05-03T05:53:08.723Z,30.30
2019-05-03T05:56:01.919Z,28.33
2019-05-03T05:58:48.828Z,27.97
2019-05-03T06:01:29.977Z,24.57
2019-05-03T06:04:00.768Z,25.67
2019-05-03T06:06:56.289Z,33.63
2019-05-03T06:10:05.279Z,29.50
2019-05-03T06:12:45.621Z,29.53
2019-05-03T06:15:40.919Z,27.17
2019-05-03T06:18:17.324Z,30.03
2019-05-03T06:21:17.314Z,31.70
2019-05-03T06:23:56.305Z,29.33
2019-05-03T06:26:45.737Z,25.57
2019-05-03T06:29:17.544Z,26.07
2019-05-03T06:32:08.695Z,26.40
2019-05-03T06:34:39.182Z,28.67
2019-05-03T06:37:15.712Z,27.90
2019-05-03T06:39:46.076Z,27.43
2019-05-03T06:42:19.315Z,27.10
2019-05-03T06:44:48.930Z,28.13
2019-05-03T06:47:21.176Z,31.43
2019-05-03T06:49:55.123Z,26.63
2019-05-03T06:52:29.328Z,30.30
2019-05-03T06:55:00.403Z,25.70
2019-05-03T06:57:30.595Z,27.17
2019-05-03T07:00:13.089Z,27.03
2019-05-03T07:02:57.308Z,29.50
2019-05-03T07:05:50.050Z,35.67
2019-05-03T07:08:59.749Z,27.93
2019-05-03T07:11:30.433Z,27.57
2019-05-03T07:14:00.834Z,31.07
2019-05-03T07:16:31.527Z,35.13
2019-05-03T07:19:04.294Z,24.87
2019-05-03T07:21:36.777Z,33.70
2019-05-03T07:24:07.222Z,28.47
2019-05-03T07:26:37.965Z,30.07
2019-05-03T07:29:09.718Z,31.87
2019-05-03T07:31:44.588Z,26.57
2019-05-03T07:34:15.577Z,28.90
2019-05-03T07:36:46.350Z,31.50
2019-05-03T07:39:17.272Z,35.33
2019-05-03T07:41:48.063Z,27.90
2019-05-03T07:44:18.894Z,28.63
2019-05-03T07:46:50.441Z,24.37
2019-05-03T07:49:24.815Z,34.53
2019-05-03T07:51:55.414Z,30.47
2019-05-03T07:54:26.175Z,28.43
2019-05-03T07:57:05.295Z,26.67
2019-05-03T07:59:35.992Z,27.27
2019-05-03T08:02:06.890Z,25.60
2019-05-03T08:04:37.827Z,29.77
2019-05-03T08:07:19.927Z,29.87
2019-05-03T08:09:41.782Z,27.73
2019-05-03T08:12:12.697Z,28.27
2019-05-03T08:14:44.649Z,35.23
2019-05-03T08:17:16.190Z,30.47
2019-05-03T08:19:47.832Z,38.93
2019-05-03T08:22:21.677Z,34.60
2019-05-03T08:24:56.388Z,34.37
2019-05-03T08:27:27.961Z,36.20
2019-05-03T08:29:59.104Z,36.90
2019-05-03T08:32:49.829Z,33.17
2019-05-03T08:35:37.785Z,31.90
2019-05-03T08:38:09.227Z,36.73
2019-05-03T08:40:45.606Z,37.93
2019-05-03T08:43:16.413Z,33.43
2019-05-03T08:45:47.351Z,37.53
2019-05-03T08:48:18.812Z,39.13
2019-05-03T08:50:49.423Z,32.37
2019-05-03T08:53:19.924Z,32.10
2019-05-03T08:55:50.681Z,35.40
2019-05-03T08:58:21.561Z,32.80
2019-05-03T09:00:54.691Z,32.40
2019-05-03T09:03:25.180Z,27.87
2019-05-03T09:05:56.583Z,24.07
2019-05-03T09:08:27.763Z,23.23
2019-05-03T09:11:04.912Z,23.37
2019-05-03T09:13:55.797Z,24.70
2019-05-03T09:16:26.415Z,24.27
2019-05-03T09:18:58.726Z,22.57
2019-05-03T09:21:29.522Z,22.90
2019-05-03T09:24:01.805Z,20.33
2019-05-03T09:26:34.839Z,23.07
2019-05-03T09:29:08.648Z,30.87
2019-05-03T09:31:39.056Z,23.20
2019-05-03T09:34:09.459Z,25.67
2019-05-03T09:36:41.425Z,27.37
2019-05-03T09:39:12.133Z,28.87
2019-05-03T09:41:45.060Z,32.17
2019-05-03T09:44:15.490Z,26.23
2019-05-03T09:46:46.247Z,27.70
2019-05-03T09:49:18.734Z,26.73
2019-05-03T09:51:49.229Z,28.03
2019-05-03T09:54:28.372Z,27.13
2019-05-03T09:57:02.264Z,28.40
2019-05-03T09:59:34.881Z,25.73
2019-05-03T10:02:05.323Z,28.33
2019-05-03T10:04:36.783Z,26.57
2019-05-03T10:07:10.168Z,24.03
2019-05-03T10:09:44.884Z,23.20
2019-05-03T10:12:20.003Z,27.97
2019-05-03T10:14:50.852Z,29.43
2019-05-03T10:17:45.625Z,24.97
2019-05-03T10:20:19.373Z,28.37
2019-05-03T10:22:50.104Z,28.30
2019-05-03T10:25:20.963Z,30.13
2019-05-03T10:27:51.417Z,30.67
2019-05-03T10:30:26.772Z,34.30
2019-05-03T10:33:09.408Z,30.53
2019-05-03T10:35:40.255Z,32.27
2019-05-03T10:38:10.900Z,32.03
2019-05-03T10:40:41.711Z,30.77
2019-05-03T10:43:14.839Z,28.57
2019-05-03T10:45:47.700Z,23.80
2019-05-03T10:48:20.304Z,24.07
2019-05-03T10:50:51.317Z,22.70
2019-05-03T10:53:27.076Z,20.70
2019-05-03T10:56:26.907Z,20.87
2019-05-03T10:59:06.309Z,19.97
2019-05-03T11:01:47.900Z,19.40
2019-05-03T11:04:20.229Z,18.00
2019-05-03T11:06:50.555Z,23.13
2019-05-03T11:09:21.946Z,23.13
2019-05-03T11:11:55.541Z,24.07
2019-05-03T11:14:25.687Z,20.87
2019-05-03T11:16:56.203Z,23.70
2019-05-03T11:19:27.593Z,34.03
2019-05-03T11:21:59.821Z,23.07
2019-05-03T11:24:32.015Z,23.00
2019-05-03T11:27:07.666Z,20.17
2019-05-03T11:29:38.520Z,21.40
2019-05-03T11:32:25.086Z,21.77
2019-05-03T11:35:32.582Z,18.43
2019-05-03T11:38:15.086Z,17.17
2019-05-03T11:40:47.779Z,19.73
2019-05-03T11:43:20.165Z,21.77
2019-05-03T11:45:52.174Z,16.27
2019-05-03T11:48:25.318Z,19.30
2019-05-03T11:50:55.794Z,16.27
2019-05-03T11:53:26.349Z,18.93
2019-05-03T11:55:56.857Z,19.13
2019-05-03T11:58:27.470Z,18.67
2019-05-03T12:01:13.050Z,17.03
2019-05-03T12:03:40.248Z,21.50
2019-05-03T12:06:11.076Z,16.87
2019-05-03T12:08:44.743Z,17.10
2019-05-03T12:11:17.473Z,18.80
2019-05-03T12:14:01.453Z,16.07
2019-05-03T12:16:48.648Z,18.43
2019-05-03T12:18:55.100Z,20.17
2019-05-03T12:21:28.952Z,18.27
2019-05-03T12:24:00.493Z,14.93
2019-05-03T12:26:41.666Z,14.73
2019-05-03T12:29:04.608Z,15.20
2019-05-03T12:31:40.157Z,18.40
2019-05-03T12:34:09.262Z,19.07
2019-05-03T12:36:40.003Z,19.57
2019-05-03T12:39:23.186Z,19.50
2019-05-03T12:41:42.541Z,17.60
2019-05-03T12:44:15.184Z,19.07
2019-05-03T12:46:45.336Z,14.70
2019-05-03T12:49:18.317Z,11.83
2019-05-03T12:51:48.896Z,12.97
2019-05-03T12:54:19.941Z,12.87
2019-05-03T12:56:50.467Z,11.80
2019-05-03T12:59:44.796Z,11.37
2019-05-03T13:02:52.426Z,13.23
2019-05-03T13:05:24.967Z,15.30
2019-05-03T13:08:15.256Z,11.90
2019-05-03T13:10:45.559Z,13.73
2019-05-03T13:13:16.001Z,14.73
2019-05-03T13:15:46.855Z,13.63
2019-05-03T13:18:19.082Z,13.73
2019-05-03T13:20:50.149Z,11.40
2019-05-03T13:23:21.598Z,12.30
2019-05-03T13:25:52.283Z,12.77
2019-05-03T13:28:25.344Z,12.17
2019-05-03T13:30:57.370Z,13.10
2019-05-03T13:33:28.140Z,13.60
2019-05-03T13:35:58.954Z,12.67
2019-05-03T13:38:31.128Z,13.27
2019-05-03T13:41:01.908Z,13.20
2019-05-03T13:43:35.146Z,21.77
2019-05-03T13:46:07.559Z,13.00
2019-05-03T13:48:45.441Z,12.20
2019-05-03T13:51:14.601Z,12.23
2019-05-03T13:53:46.328Z,13.23
2019-05-03T13:56:17.789Z,13.77
2019-05-03T13:58:48.891Z,13.67
2019-05-03T14:01:20.912Z,13.97
2019-05-03T14:03:51.696Z,10.73
2019-05-03T14:06:24.256Z,12.53
2019-05-03T14:08:54.985Z,13.03
2019-05-03T14:11:25.632Z,15.30
2019-05-03T14:13:57.551Z,10.17
2019-05-03T14:16:29.984Z,12.53
2019-05-03T14:19:06.109Z,14.03
2019-05-03T14:21:42.170Z,12.00
2019-05-03T14:24:15.622Z,11.93
2019-05-03T14:26:47.362Z,11.10
2019-05-03T14:29:17.999Z,12.67
2019-05-03T14:31:48.349Z,13.10
2019-05-03T14:34:19.202Z,13.83
2019-05-03T14:36:50.113Z,12.27
2019-05-03T14:39:20.745Z,10.10
2019-05-03T14:41:52.305Z,11.83
2019-05-03T14:44:25.072Z,12.07
2019-05-03T14:46:56.661Z,10.63
2019-05-03T14:49:28.218Z,13.37
2019-05-03T14:52:00.846Z,12.60
2019-05-03T14:54:34.512Z,11.27
2019-05-03T14:57:19.913Z,18.43
2019-05-03T15:00:05.701Z,11.27
2019-05-03T15:02:50.092Z,10.30
2019-05-03T15:05:17.989Z,10.67
2019-05-03T15:07:48.524Z,12.13
2019-05-03T15:10:19.985Z,10.50
2019-05-03T15:12:50.511Z,14.13
2019-05-03T15:15:21.710Z,13.53
2019-05-03T15:17:52.166Z,13.07
2019-05-03T15:20:22.816Z,12.13
2019-05-03T15:22:55.043Z,14.47
2019-05-03T15:25:27.050Z,17.57
2019-05-03T15:27:57.583Z,13.47
2019-05-03T15:30:27.991Z,14.93
2019-05-03T15:33:00.907Z,12.73
2019-05-03T15:35:31.033Z,20.07
2019-05-03T15:38:02.690Z,17.03
2019-05-03T15:40:33.213Z,13.50
2019-05-03T15:43:16.135Z,14.87
2019-05-03T15:46:07.217Z,16.63
2019-05-03T15:48:45.695Z,14.53
2019-05-03T15:51:18.204Z,13.60
2019-05-03T15:53:48.559Z,18.47
2019-05-03T15:56:19.451Z,12.70
2019-05-03T15:58:52.783Z,15.03
2019-05-03T16:01:24.797Z,14.03
2019-05-03T16:03:56.488Z,15.47
2019-05-03T16:06:28.922Z,14.57
2019-05-03T16:08:59.633Z,13.90
2019-05-03T16:11:34.407Z,16.10
2019-05-03T16:14:05.203Z,13.63
2019-05-03T16:16:36.138Z,14.40
2019-05-03T16:19:06.883Z,18.33
2019-05-03T16:21:37.668Z,15.07
2019-05-03T16:24:08.565Z,14.57
2019-05-03T16:26:57.915Z,13.83
2019-05-03T16:29:29.471Z,18.40
2019-05-03T16:32:00.864Z,17.80
2019-05-03T16:34:35.022Z,17.20
2019-05-03T16:37:05.897Z,17.07
2019-05-03T16:39:36.369Z,16.73
2019-05-03T16:42:08.882Z,18.30
2019-05-03T16:44:39.959Z,18.73
2019-05-03T16:47:11.895Z,19.23
2019-05-03T16:49:42.487Z,18.90
2019-05-03T16:52:14.686Z,22.20
2019-05-03T16:54:46.827Z,20.97
2019-05-03T16:57:19.504Z,17.63
2019-05-03T16:59:51.114Z,16.10
2019-05-03T17:02:24.578Z,21.03
2019-05-03T17:05:05.157Z,17.93
2019-05-03T17:07:46.752Z,18.47
2019-05-03T17:10:27.717Z,19.00
2019-05-03T17:12:59.914Z,20.83
2019-05-03T17:15:32.279Z,14.70
2019-05-03T17:18:04.486Z,18.93
2019-05-03T17:20:35.549Z,19.83
2019-05-03T17:23:07.009Z,24.27
2019-05-03T17:25:37.685Z,18.83
2019-05-03T17:28:08.697Z,18.30
2019-05-03T17:30:39.557Z,22.23
2019-05-03T17:33:10.080Z,18.20
2019-05-03T17:35:41.798Z,19.63
2019-05-03T17:38:12.572Z,21.47
2019-05-03T17:41:04.328Z,19.57
2019-05-03T17:43:45.806Z,17.03
2019-05-03T17:46:17.159Z,19.57
2019-05-03T17:48:47.654Z,19.13
2019-05-03T17:51:40.052Z,23.63
2019-05-03T17:54:29.791Z,19.73
2019-05-03T17:57:20.095Z,18.70
2019-05-03T17:59:56.288Z,23.30
2019-05-03T18:02:34.857Z,24.70
2019-05-03T18:05:25.112Z,22.20
2019-05-03T18:08:35.416Z,19.57
2019-05-03T18:11:10.203Z,21.50
2019-05-03T18:13:44.626Z,20.73
2019-05-03T18:16:16.956Z,22.10
2019-05-03T18:18:48.367Z,22.67
2019-05-03T18:21:19.881Z,20.30
2019-05-03T18:23:50.337Z,20.43
2019-05-03T18:26:21.112Z,25.40
2019-05-03T18:28:55.361Z,27.40
2019-05-03T18:31:28.143Z,24.40
2019-05-03T18:33:59.345Z,17.90
2019-05-03T18:36:32.407Z,24.67
2019-05-03T18:39:07.079Z,21.87
2019-05-03T18:41:38.784Z,20.17
2019-05-03T18:44:34.429Z,20.77
2019-05-03T18:47:08.605Z,21.90
2019-05-03T18:49:42.478Z,21.23
2019-05-03T18:52:14.938Z,22.33
2019-05-03T18:54:46.562Z,24.33
2019-05-03T18:57:18.977Z,21.97
2019-05-03T18:59:51.809Z,21.63
2019-05-03T19:02:24.183Z,19.27
2019-05-03T19:04:56.397Z,20.80
2019-05-03T19:07:45.333Z,20.23
2019-05-03T19:10:27.570Z,20.97
2019-05-03T19:13:14.976Z,24.00
2019-05-03T19:15:46.119Z,22.53
2019-05-03T19:18:27.876Z,25.40
2019-05-03T19:20:59.681Z,25.00
2019-05-03T19:23:31.465Z,26.53
2019-05-03T19:26:05.409Z,28.80
2019-05-03T19:28:36.966Z,30.33
2019-05-03T19:31:09.418Z,23.77
2019-05-03T19:33:40.314Z,26.77
2019-05-03T19:36:11.849Z,27.60
2019-05-03T19:38:42.485Z,25.63
2019-05-03T19:41:14.572Z,28.90
2019-05-03T19:43:46.649Z,25.57
2019-05-03T19:46:18.577Z,23.93
2019-05-03T19:48:49.148Z,23.23
2019-05-03T19:51:21.361Z,27.20
2019-05-03T19:53:55.688Z,24.40
2019-05-03T19:56:26.457Z,24.37
2019-05-03T19:59:01.714Z,27.30
2019-05-03T20:01:51.186Z,24.30
2019-05-03T20:04:42.401Z,26.13
2019-05-03T20:07:31.801Z,30.80
2019-05-03T20:10:02.636Z,27.03
2019-05-03T20:12:35.267Z,26.03
2019-05-03T20:15:06.248Z,28.40
2019-05-03T20:17:37.018Z,24.37
2019-05-03T20:20:09.973Z,26.77
2019-05-03T20:22:40.453Z,27.20
2019-05-03T20:25:10.866Z,28.63
2019-05-03T20:27:44.491Z,32.47
2019-05-03T20:30:15.270Z,26.27
2019-05-03T20:32:46.038Z,25.83
2019-05-03T20:35:19.357Z,26.63
2019-05-03T20:37:52.999Z,24.80
2019-05-03T20:40:25.416Z,29.93
2019-05-03T20:43:16.070Z,27.97
2019-05-03T20:45:57.511Z,23.73
2019-05-03T20:48:29.038Z,29.27
2019-05-03T20:51:02.685Z,29.27
2019-05-03T20:53:34.401Z,28.90
2019-05-03T20:56:06.196Z,23.27
2019-05-03T20:58:36.862Z,25.17
2019-05-03T21:01:08.661Z,29.97
2019-05-03T21:03:41.283Z,28.50
2019-05-03T21:06:12.120Z,28.73
2019-05-03T21:08:50.605Z,30.37
2019-05-03T21:11:16.581Z,32.27
2019-05-03T21:13:48.821Z,29.67
2019-05-03T21:16:36.990Z,31.83
2019-05-03T21:19:25.953Z,28.33
2019-05-03T21:22:02.077Z,30.17
2019-05-03T21:24:39.194Z,27.13
2019-05-03T21:27:11.154Z,31.47
2019-05-03T21:29:55.413Z,27.43
2019-05-03T21:32:25.797Z,27.30
2019-05-03T21:34:56.286Z,24.50
2019-05-03T21:37:26.766Z,28.47
2019-05-03T21:39:57.166Z,30.70
2019-05-03T21:42:27.618Z,27.97
2019-05-03T21:45:00.222Z,28.27
2019-05-03T21:48:08.356Z,30.07
2019-05-03T21:50:39.049Z,32.70
2019-05-03T21:53:09.455Z,27.50
2019-05-03T21:55:41.596Z,31.77
2019-05-03T21:58:16.028Z,35.50
2019-05-03T22:01:05.363Z,25.90
2019-05-03T22:03:36.836Z,28.70
2019-05-03T22:06:10.135Z,31.20
2019-05-03T22:08:41.031Z,30.43
2019-05-03T22:11:11.446Z,30.47
2019-05-03T22:13:42.813Z,27.77
2019-05-03T22:16:16.905Z,28.57
2019-05-03T22:18:47.609Z,30.63
2019-05-03T22:21:36.973Z,31.30
2019-05-03T22:24:17.487Z,32.90
2019-05-03T22:27:04.823Z,34.43
2019-05-03T22:29:35.691Z,32.40
2019-05-03T22:32:06.902Z,30.40
2019-05-03T22:34:38.932Z,31.20
2019-05-03T22:37:09.588Z,30.63
2019-05-03T22:39:41.258Z,32.83
2019-05-03T22:42:14.722Z,29.63
2019-05-03T22:44:47.333Z,30.33
2019-05-03T22:47:18.635Z,32.97
2019-05-03T22:49:49.417Z,31.50
2019-05-03T22:52:19.802Z,29.07
2019-05-03T22:54:50.577Z,27.83
2019-05-03T22:57:21.438Z,28.07
2019-05-03T22:59:51.912Z,28.37
2019-05-03T23:02:24.939Z,27.10
2019-05-03T23:04:55.877Z,27.57
2019-05-03T23:07:26.481Z,29.80
2019-05-03T23:09:57.291Z,28.20
2019-05-03T23:12:28.046Z,31.67
2019-05-03T23:14:58.482Z,27.27
2019-05-03T23:17:30.573Z,26.43
2019-05-03T23:20:07.433Z,30.13
2019-05-03T23:22:39.622Z,26.33
2019-05-03T23:25:14.435Z,29.47
2019-05-03T23:27:46.948Z,24.93
2019-05-03T23:30:18.352Z,28.90
2019-05-03T23:32:48.726Z,26.03
2019-05-03T23:35:20.228Z,23.13
2019-05-03T23:37:50.726Z,26.93
2019-05-03T23:40:21.185Z,25.67
2019-05-03T23:42:54.507Z,25.60
2019-05-03T23:45:25.554Z,25.90
2019-05-03T23:47:56.089Z,25.90
2019-05-03T23:50:28.342Z,28.03
2019-05-03T23:53:00.486Z,25.47
2019-05-03T23:55:45.221Z,28.70
2019-05-03T23:58:16.012Z,27.47
